createdAt,value
2022-11-12T00:00:30.462Z,90.74
2022-11-12T00:03:24.260Z,90.82
2022-11-12T00:06:15.604Z,90.94
2022-11-12T00:09:06.598Z,91.27
2022-11-12T00:11:57.578Z,91.31
2022-11-12T00:14:48.751Z,91.05
2022-11-12T00:17:40.387Z,91.33
2022-11-12T00:20:31.508Z,91.50
2022-11-12T00:23:22.431Z,91.75
2022-11-12T00:26:13.248Z,91.94
2022-11-12T00:29:04.566Z,92.03
2022-11-12T00:31:55.658Z,92.08
2022-11-12T00:34:49.555Z,92.33
2022-11-12T00:37:40.576Z,92.42
2022-11-12T00:40:32.372Z,92.51
2022-11-12T00:43:24.807Z,92.48
2022-11-12T00:46:15.745Z,92.72
2022-11-12T00:49:06.851Z,92.90
2022-11-12T00:51:58.229Z,92.79
2022-11-12T00:54:49.090Z,92.85
2022-11-12T00:57:42.333Z,92.72
2022-11-12T01:00:33.245Z,92.56
2022-11-12T01:03:24.564Z,92.31
2022-11-12T01:06:20.465Z,92.46
2022-11-12T01:09:11.849Z,92.49
2022-11-12T01:12:02.652Z,92.53
2022-11-12T01:14:54.009Z,92.72
2022-11-12T01:17:45.433Z,92.79
2022-11-12T01:20:39.431Z,92.76
2022-11-12T01:23:30.642Z,92.90
2022-11-12T01:26:23.877Z,93.03
2022-11-12T01:29:15.133Z,93.02
2022-11-12T01:32:06.340Z,92.44
2022-11-12T01:34:57.829Z,91.94
2022-11-12T01:37:48.241Z,91.87
2022-11-12T01:40:39.932Z,91.86
2022-11-12T01:43:30.872Z,91.83
2022-11-12T01:46:29.183Z,91.82
2022-11-12T01:49:24.640Z,91.82
2022-11-12T01:52:31.580Z,91.67
2022-11-12T01:55:29.374Z,91.63
2022-11-12T01:58:22.565Z,91.74
2022-11-12T02:01:13.906Z,91.94
2022-11-12T02:04:04.576Z,92.18
2022-11-12T02:06:57.978Z,92.38
2022-11-12T02:09:48.769Z,92.57
2022-11-12T02:12:58.295Z,92.81
2022-11-12T02:15:49.459Z,93.12
2022-11-12T02:18:40.176Z,93.31
2022-11-12T02:21:31.970Z,93.12
2022-11-12T02:24:27.466Z,93.13
2022-11-12T02:27:18.510Z,93.37
2022-11-12T02:30:10.930Z,93.47
2022-11-12T02:33:04.155Z,93.58
2022-11-12T02:35:55.356Z,93.85
2022-11-12T02:38:46.199Z,93.78
2022-11-12T02:41:38.912Z,93.54
2022-11-12T02:44:30.533Z,93.25
2022-11-12T02:47:22.155Z,93.10
2022-11-12T02:50:14.049Z,93.15
2022-11-12T02:53:05.182Z,93.13
2022-11-12T02:55:56.486Z,93.27
2022-11-12T02:58:46.951Z,93.35
2022-11-12T03:01:37.520Z,93.29
2022-11-12T03:04:28.711Z,93.27
2022-11-12T03:07:19.571Z,93.26
2022-11-12T03:10:11.119Z,93.29
2022-11-12T03:13:03.911Z,93.35
2022-11-12T03:16:01.066Z,93.66
2022-11-12T03:18:51.930Z,93.75
2022-11-12T03:21:43.341Z,93.99
2022-11-12T03:24:34.189Z,94.11
2022-11-12T03:27:24.798Z,93.87
2022-11-12T03:30:15.693Z,93.58
2022-11-12T03:33:11.564Z,93.68
2022-11-12T03:36:02.712Z,93.96
2022-11-12T03:38:53.488Z,93.80
2022-11-12T03:41:44.777Z,93.78
2022-11-12T03:44:36.435Z,93.84
2022-11-12T03:47:27.345Z,93.97
2022-11-12T03:50:20.470Z,94.10
2022-11-12T03:53:11.092Z,94.19
2022-11-12T03:56:02.045Z,94.54
2022-11-12T03:58:52.780Z,94.50
2022-11-12T04:01:44.117Z,94.52
2022-11-12T04:04:52.397Z,94.44
2022-11-12T04:08:02.058Z,94.33
2022-11-12T04:10:54.062Z,94.42
2022-11-12T04:13:48.860Z,94.50
2022-11-12T04:16:57.183Z,94.40
2022-11-12T04:20:03.290Z,94.08
2022-11-12T04:22:54.001Z,93.77
2022-11-12T04:26:02.584Z,93.69
2022-11-12T04:29:11.353Z,93.49
2022-11-12T04:32:01.925Z,93.32
2022-11-12T04:34:54.173Z,93.34
2022-11-12T04:37:45.556Z,93.28
2022-11-12T04:40:54.474Z,93.00
2022-11-12T04:44:03.072Z,92.93
2022-11-12T04:46:54.005Z,92.86
2022-11-12T04:49:44.988Z,92.84
2022-11-12T04:52:36.924Z,92.72
2022-11-12T04:55:28.282Z,92.71
2022-11-12T04:58:19.272Z,92.67
2022-11-12T05:01:10.193Z,92.64
2022-11-12T05:04:01.557Z,92.56
2022-11-12T05:06:53.232Z,92.60
2022-11-12T05:09:45.005Z,92.48
2022-11-12T05:12:36.569Z,92.31
2022-11-12T05:15:28.040Z,92.39
2022-11-12T05:18:18.979Z,92.27
2022-11-12T05:21:27.900Z,92.19
2022-11-12T05:24:40.576Z,92.26
2022-11-12T05:27:17.882Z,92.26
2022-11-12T05:30:10.259Z,92.17
2022-11-12T05:33:01.299Z,91.81
2022-11-12T05:35:52.318Z,91.86
2022-11-12T05:38:43.171Z,91.77
2022-11-12T05:41:51.388Z,91.45
2022-11-12T05:44:27.064Z,91.47
2022-11-12T05:47:18.159Z,91.44
2022-11-12T05:50:10.415Z,91.38
2022-11-12T05:53:01.300Z,91.41
2022-11-12T05:55:52.105Z,91.52
2022-11-12T05:58:42.630Z,91.58
2022-11-12T06:01:33.899Z,91.51
2022-11-12T06:04:24.844Z,91.58
2022-11-12T06:07:15.962Z,91.53
2022-11-12T06:10:08.216Z,91.74
2022-11-12T06:12:59.322Z,91.87
2022-11-12T06:15:52.615Z,92.11
2022-11-12T06:18:43.650Z,92.33
2022-11-12T06:21:34.482Z,92.51
2022-11-12T06:24:27.484Z,92.51
2022-11-12T06:27:18.278Z,92.55
2022-11-12T06:30:10.942Z,92.66
2022-11-12T06:33:01.669Z,92.78
2022-11-12T06:36:00.896Z,92.94
2022-11-12T06:38:52.430Z,93.06
2022-11-12T06:41:43.470Z,92.85
2022-11-12T06:44:34.984Z,92.51
2022-11-12T06:47:26.255Z,92.49
2022-11-12T06:50:17.846Z,92.32
2022-11-12T06:53:09.072Z,92.18
2022-11-12T06:56:07.812Z,91.94
2022-11-12T06:58:58.667Z,91.78
2022-11-12T07:01:49.629Z,91.66
2022-11-12T07:04:41.220Z,91.27
2022-11-12T07:07:32.318Z,90.93
2022-11-12T07:10:24.057Z,90.47
2022-11-12T07:13:14.721Z,90.21
2022-11-12T07:16:09.201Z,90.28
2022-11-12T07:19:02.326Z,90.22
2022-11-12T07:21:53.979Z,90.03
2022-11-12T07:24:46.468Z,90.00
2022-11-12T07:27:37.653Z,90.16
2022-11-12T07:30:28.601Z,90.37
2022-11-12T07:33:19.957Z,90.73
2022-11-12T07:36:15.277Z,90.82
2022-11-12T07:39:06.743Z,90.68
2022-11-12T07:41:57.483Z,90.68
2022-11-12T07:44:48.696Z,90.83
2022-11-12T07:47:39.593Z,90.74
2022-11-12T07:50:30.861Z,90.73
2022-11-12T07:53:21.559Z,90.94
2022-11-12T07:56:16.277Z,90.87
2022-11-12T07:59:08.178Z,91.14
2022-11-12T08:01:58.906Z,91.13
2022-11-12T08:04:49.619Z,91.18
2022-11-12T08:07:41.158Z,91.36
2022-11-12T08:10:31.831Z,91.44
2022-11-12T08:13:22.920Z,91.34
2022-11-12T08:16:14.231Z,91.23
2022-11-12T08:19:05.626Z,91.24
2022-11-12T08:21:57.442Z,91.12
2022-11-12T08:24:47.798Z,91.08
2022-11-12T08:27:39.949Z,91.05
2022-11-12T08:30:31.761Z,91.00
2022-11-12T08:33:23.173Z,90.85
2022-11-12T08:36:16.884Z,90.94
2022-11-12T08:39:08.866Z,91.00
2022-11-12T08:41:59.882Z,91.02
2022-11-12T08:44:50.357Z,90.86
2022-11-12T08:47:41.770Z,90.84
2022-11-12T08:50:32.792Z,91.17
2022-11-12T08:53:25.199Z,91.19
2022-11-12T08:56:16.520Z,91.08
2022-11-12T08:59:07.702Z,90.74
2022-11-12T09:01:58.683Z,90.55
2022-11-12T09:04:49.588Z,90.46
2022-11-12T09:07:49.908Z,90.49
2022-11-12T09:10:33.589Z,90.59
2022-11-12T09:13:25.192Z,90.58
2022-11-12T09:16:16.334Z,90.68
2022-11-12T09:19:06.932Z,90.79
2022-11-12T09:21:57.690Z,90.95
2022-11-12T09:24:48.541Z,91.00
2022-11-12T09:27:47.258Z,91.08
2022-11-12T09:30:33.548Z,91.21
2022-11-12T09:33:28.298Z,91.28
2022-11-12T09:36:20.075Z,91.29
2022-11-12T09:39:11.983Z,91.37
2022-11-12T09:42:10.261Z,91.73
2022-11-12T09:45:17.623Z,91.74
2022-11-12T09:48:10.467Z,91.97
2022-11-12T09:51:07.100Z,92.09
2022-11-12T09:54:05.461Z,92.42
2022-11-12T09:56:56.456Z,92.82
2022-11-12T09:59:48.097Z,93.11
2022-11-12T10:02:46.395Z,93.41
2022-11-12T10:05:42.516Z,93.72
2022-11-12T10:08:38.832Z,93.97
2022-11-12T10:12:22.447Z,94.04
2022-11-12T10:15:57.108Z,94.16
2022-11-12T10:19:16.200Z,94.24
2022-11-12T10:22:36.636Z,94.37
2022-11-12T10:25:29.275Z,94.52
2022-11-12T10:28:35.664Z,94.69
2022-11-12T10:31:23.844Z,94.80
2022-11-12T10:34:20.985Z,94.92
2022-11-12T10:37:47.348Z,95.08
2022-11-12T10:40:41.853Z,95.10
2022-11-12T10:43:32.792Z,95.17
2022-11-12T10:46:27.802Z,94.95
2022-11-12T10:49:23.272Z,94.95
2022-11-12T10:52:25.752Z,95.11
2022-11-12T10:55:34.711Z,95.16
2022-11-12T10:58:25.755Z,95.17
2022-11-12T11:01:19.582Z,95.22
2022-11-12T11:04:23.157Z,95.39
2022-11-12T11:07:25.128Z,95.42
2022-11-12T11:10:27.614Z,95.60
2022-11-12T11:13:29.290Z,95.38
2022-11-12T11:16:24.066Z,95.19
2022-11-12T11:19:15.879Z,95.03
2022-11-12T11:22:47.473Z,94.69
2022-11-12T11:25:39.767Z,94.58
2022-11-12T11:28:59.111Z,94.26
2022-11-12T11:32:03.270Z,94.13
2022-11-12T11:35:33.643Z,93.98
2022-11-12T11:38:56.632Z,93.92
2022-11-12T11:42:19.844Z,93.55
2022-11-12T11:45:26.697Z,93.19
2022-11-12T11:48:48.877Z,93.16
2022-11-12T11:52:06.020Z,92.95
2022-11-12T11:55:31.895Z,92.70
2022-11-12T11:58:49.947Z,92.37
2022-11-12T12:02:00.378Z,92.41
2022-11-12T12:05:30.940Z,92.23
2022-11-12T12:08:38.507Z,92.31
2022-11-12T12:11:37.387Z,92.31
2022-11-12T12:14:35.903Z,91.95
2022-11-12T12:17:49.687Z,91.91
2022-11-12T12:21:10.511Z,91.60
2022-11-12T12:24:32.785Z,91.28
2022-11-12T12:27:31.152Z,91.19
2022-11-12T12:30:26.193Z,91.03
2022-11-12T12:33:30.460Z,91.16
2022-11-12T12:36:39.496Z,91.06
2022-11-12T12:39:45.070Z,91.13
2022-11-12T12:42:40.847Z,91.11
2022-11-12T12:45:46.316Z,90.70
2022-11-12T12:48:40.325Z,90.56
2022-11-12T12:51:33.807Z,90.35
2022-11-12T12:54:45.456Z,90.08
2022-11-12T12:57:40.732Z,90.18
2022-11-12T13:00:42.425Z,90.02
2022-11-12T13:03:50.833Z,89.95
2022-11-12T13:06:50.057Z,90.06
2022-11-12T13:09:42.024Z,90.22
2022-11-12T13:13:07.463Z,90.34
2022-11-12T13:16:00.229Z,90.39
2022-11-12T13:18:58.360Z,90.36
2022-11-12T13:21:48.994Z,90.44
2022-11-12T13:25:17.179Z,90.29
2022-11-12T13:28:12.834Z,90.31
2022-11-12T13:31:05.118Z,90.06
2022-11-12T13:33:56.373Z,90.24
2022-11-12T13:37:05.423Z,90.24
2022-11-12T13:39:56.248Z,90.42
2022-11-12T13:42:51.436Z,90.37
2022-11-12T13:46:01.838Z,90.48
2022-11-12T13:49:04.029Z,90.61
2022-11-12T13:51:56.914Z,90.65
2022-11-12T13:54:47.967Z,90.79
2022-11-12T13:57:39.433Z,90.87
2022-11-12T14:00:33.092Z,91.01
2022-11-12T14:03:24.395Z,91.13
2022-11-12T14:06:37.036Z,91.25
2022-11-12T14:09:58.109Z,91.18
2022-11-12T14:12:53.710Z,91.29
2022-11-12T14:15:52.862Z,91.45
2022-11-12T14:18:57.699Z,91.69
2022-11-12T14:22:03.143Z,91.70
2022-11-12T14:24:58.658Z,91.83
2022-11-12T14:27:51.505Z,92.21
2022-11-12T14:30:46.488Z,92.52
2022-11-12T14:33:38.262Z,92.67
2022-11-12T14:36:30.940Z,93.03
2022-11-12T14:39:21.732Z,93.31
2022-11-12T14:42:15.133Z,93.60
2022-11-12T14:45:07.479Z,93.85
2022-11-12T14:47:59.139Z,94.14
2022-11-12T14:50:52.568Z,94.31
2022-11-12T14:53:57.474Z,94.63
2022-11-12T14:56:50.370Z,94.83
2022-11-12T14:59:41.891Z,95.10
2022-11-12T15:02:50.348Z,95.44
2022-11-12T15:05:28.421Z,95.63
2022-11-12T15:08:32.690Z,95.93
2022-11-12T15:11:33.944Z,95.98
2022-11-12T15:14:26.830Z,96.07
2022-11-12T15:17:26.083Z,96.19
2022-11-12T15:20:19.201Z,96.39
2022-11-12T15:23:20.121Z,96.73
2022-11-12T15:26:15.370Z,96.98
2022-11-12T15:29:31.995Z,97.22
2022-11-12T15:32:27.726Z,97.37
2022-11-12T15:35:32.884Z,97.49
2022-11-12T15:38:36.321Z,97.50
2022-11-12T15:41:32.124Z,97.64
2022-11-12T15:44:24.548Z,97.83
2022-11-12T15:47:21.980Z,98.04
2022-11-12T15:50:24.634Z,98.22
2022-11-12T15:53:17.118Z,98.35
2022-11-12T15:56:14.760Z,98.37
2022-11-12T15:59:06.009Z,98.42
2022-11-12T16:01:56.791Z,98.61
2022-11-12T16:04:47.568Z,98.74
2022-11-12T16:07:39.603Z,98.81
2022-11-12T16:10:31.025Z,99.05
2022-11-12T16:13:36.570Z,99.09
2022-11-12T16:16:27.871Z,99.36
2022-11-12T16:19:20.667Z,99.64
2022-11-12T16:22:14.597Z,99.66
2022-11-12T16:25:08.576Z,99.99
2022-11-12T16:28:01.149Z,100.00
2022-11-12T16:30:52.763Z,100.00
2022-11-12T16:33:43.754Z,100.00
2022-11-12T16:36:35.247Z,100.00
2022-11-12T16:39:26.353Z,100.00
2022-11-12T16:42:17.702Z,100.00
2022-11-12T16:45:13.235Z,100.00
2022-11-12T16:48:15.576Z,100.00
2022-11-12T16:51:06.724Z,100.00
2022-11-12T16:53:58.212Z,100.00
2022-11-12T16:56:49.727Z,100.00
2022-11-12T16:59:41.994Z,100.00
2022-11-12T17:02:36.872Z,100.00
2022-11-12T17:05:28.048Z,100.00
2022-11-12T17:08:20.654Z,100.00
2022-11-12T17:11:12.428Z,100.00
2022-11-12T17:14:04.332Z,100.00
2022-11-12T17:16:55.846Z,100.00
2022-11-12T17:19:49.249Z,100.00
2022-11-12T17:22:41.433Z,100.00
2022-11-12T17:25:32.273Z,100.00
2022-11-12T17:28:23.376Z,100.00
2022-11-12T17:31:20.389Z,100.00
2022-11-12T17:34:12.801Z,100.00
2022-11-12T17:37:03.901Z,100.00
2022-11-12T17:39:58.992Z,100.00
2022-11-12T17:42:50.714Z,100.00
2022-11-12T17:45:54.282Z,100.00
2022-11-12T17:48:45.769Z,100.00
2022-11-12T17:51:37.019Z,100.00
2022-11-12T17:54:29.222Z,100.00
2022-11-12T17:57:32.616Z,100.00
2022-11-12T18:00:25.087Z,100.00
2022-11-12T18:03:16.535Z,100.00
2022-11-12T18:06:11.887Z,100.00
2022-11-12T18:09:17.958Z,100.00
2022-11-12T18:12:10.458Z,100.00
2022-11-12T18:15:01.443Z,100.00
2022-11-12T18:17:53.568Z,100.00
2022-11-12T18:20:48.084Z,100.00
2022-11-12T18:23:44.028Z,100.00
2022-11-12T18:26:36.632Z,100.00
2022-11-12T18:29:27.440Z,100.00
2022-11-12T18:32:18.924Z,100.00
2022-11-12T18:35:11.776Z,100.00
2022-11-12T18:38:03.051Z,100.00
2022-11-12T18:41:07.137Z,100.00
2022-11-12T18:43:59.408Z,100.00
2022-11-12T18:46:53.772Z,100.00
2022-11-12T18:49:46.665Z,100.00
2022-11-12T18:52:38.435Z,100.00
2022-11-12T18:55:30.874Z,100.00
2022-11-12T18:58:21.523Z,100.00
2022-11-12T19:01:21.247Z,100.00
2022-11-12T19:04:13.877Z,100.00
2022-11-12T19:07:05.923Z,100.00
2022-11-12T19:09:58.615Z,100.00
2022-11-12T19:12:51.171Z,100.00
2022-11-12T19:15:42.490Z,100.00
2022-11-12T19:18:33.737Z,100.00
2022-11-12T19:21:28.027Z,100.00
2022-11-12T19:24:19.169Z,100.00
2022-11-12T19:27:12.356Z,100.00
2022-11-12T19:30:03.744Z,100.00
2022-11-12T19:32:56.468Z,100.00
2022-11-12T19:35:47.681Z,100.00
2022-11-12T19:38:41.191Z,100.00
2022-11-12T19:41:32.942Z,100.00
2022-11-12T19:44:24.551Z,100.00
2022-11-12T19:47:16.269Z,100.00
2022-11-12T19:50:10.066Z,100.00
2022-11-12T19:53:01.429Z,100.00
2022-11-12T19:55:52.891Z,100.00
2022-11-12T19:58:48.989Z,100.00
2022-11-12T20:01:41.169Z,100.00
2022-11-12T20:04:32.680Z,100.00
2022-11-12T20:07:23.841Z,100.00
2022-11-12T20:10:15.194Z,100.00
2022-11-12T20:13:07.332Z,100.00
2022-11-12T20:15:58.692Z,100.00
2022-11-12T20:18:51.087Z,100.00
2022-11-12T20:21:42.956Z,100.00
2022-11-12T20:24:34.241Z,100.00
2022-11-12T20:27:26.505Z,100.00
2022-11-12T20:30:19.407Z,100.00
2022-11-12T20:33:10.364Z,100.00
2022-11-12T20:36:14.017Z,100.00
2022-11-12T20:39:05.090Z,100.00
2022-11-12T20:41:56.177Z,100.00
2022-11-12T20:44:47.452Z,100.00
2022-11-12T20:47:38.577Z,100.00
2022-11-12T20:50:29.360Z,100.00
2022-11-12T20:53:20.350Z,100.00
2022-11-12T20:56:14.885Z,100.00
2022-11-12T20:59:06.374Z,100.00
2022-11-12T21:01:58.126Z,100.00
2022-11-12T21:04:49.098Z,100.00
2022-11-12T21:07:40.567Z,100.00
2022-11-12T21:10:33.078Z,100.00
2022-11-12T21:13:24.505Z,100.00
2022-11-12T21:16:16.139Z,100.00
2022-11-12T21:19:07.740Z,100.00
2022-11-12T21:21:59.314Z,100.00
2022-11-12T21:24:50.099Z,100.00
2022-11-12T21:27:41.581Z,100.00
2022-11-12T21:30:33.819Z,100.00
2022-11-12T21:33:24.913Z,100.00
2022-11-12T21:36:16.672Z,100.00
2022-11-12T21:39:08.885Z,100.00
2022-11-12T21:41:59.897Z,100.00
2022-11-12T21:44:51.702Z,100.00
2022-11-12T21:47:43.161Z,100.00
2022-11-12T21:50:34.618Z,100.00
2022-11-12T21:53:25.859Z,100.00
2022-11-12T21:56:21.101Z,100.00
2022-11-12T21:59:11.706Z,100.00
2022-11-12T22:02:03.580Z,100.00
2022-11-12T22:04:55.077Z,100.00
2022-11-12T22:07:46.450Z,100.00
2022-11-12T22:10:38.439Z,100.00
2022-11-12T22:13:29.305Z,100.00
2022-11-12T22:16:26.241Z,100.00
2022-11-12T22:19:19.745Z,100.00
2022-11-12T22:22:11.341Z,100.00
2022-11-12T22:25:02.246Z,100.00
2022-11-12T22:27:53.304Z,100.00
2022-11-12T22:30:44.435Z,100.00
2022-11-12T22:33:36.249Z,100.00
2022-11-12T22:36:31.067Z,100.00
2022-11-12T22:39:21.651Z,100.00
2022-11-12T22:42:12.555Z,100.00
2022-11-12T22:45:03.795Z,100.00
2022-11-12T22:47:55.543Z,100.00
2022-11-12T22:50:47.102Z,100.00
2022-11-12T22:53:38.070Z,100.00
2022-11-12T22:56:30.118Z,100.00
2022-11-12T22:59:21.182Z,100.00
2022-11-12T23:02:12.318Z,100.00
2022-11-12T23:05:03.796Z,100.00
2022-11-12T23:07:55.000Z,100.00
2022-11-12T23:10:47.168Z,100.00
2022-11-12T23:13:38.857Z,100.00
2022-11-12T23:16:31.726Z,100.00
2022-11-12T23:19:23.512Z,100.00
2022-11-12T23:22:14.920Z,100.00
2022-11-12T23:25:06.437Z,100.00
2022-11-12T23:27:57.217Z,100.00
2022-11-12T23:30:52.557Z,100.00
2022-11-12T23:33:48.221Z,100.00
2022-11-12T23:36:39.032Z,100.00
2022-11-12T23:39:29.576Z,100.00
2022-11-12T23:42:20.642Z,100.00
2022-11-12T23:45:12.596Z,100.00
2022-11-12T23:48:03.903Z,100.00
2022-11-12T23:51:04.853Z,100.00
2022-11-12T23:53:55.420Z,100.00
2022-11-12T23:56:46.983Z,100.00
2022-11-12T23:59:38.407Z,100.00
